sensor_id;sensor_type;location;lat;lon;timestamp;temperature;humidity
64226;DHT22;50545;56.064;26.178;2023-11-19T00:00:10;-1.90;99.90
64226;DHT22;50545;56.064;26.178;2023-11-19T00:02:42;-1.90;99.90
64226;DHT22;50545;56.064;26.178;2023-11-19T00:05:10;-1.90;99.90
64226;DHT22;50545;56.064;26.178;2023-11-19T00:07:42;-1.90;99.90
64226;DHT22;50545;56.064;26.178;2023-11-19T00:10:11;-1.90;99.90
64226;DHT22;50545;56.064;26.178;2023-11-19T00:12:43;-1.90;99.90
64226;DHT22;50545;56.064;26.178;2023-11-19T00:15:14;-2.00;99.90
64226;DHT22;50545;56.064;26.178;2023-11-19T00:17:44;-1.90;99.90
64226;DHT22;50545;56.064;26.178;2023-11-19T00:20:20;-1.90;99.90
64226;DHT22;50545;56.064;26.178;2023-11-19T00:22:49;-2.00;99.90
64226;DHT22;50545;56.064;26.178;2023-11-19T00:25:20;-1.90;99.90
64226;DHT22;50545;56.064;26.178;2023-11-19T00:27:50;-2.00;99.90
64226;DHT22;50545;56.064;26.178;2023-11-19T00:30:18;-2.00;99.90
64226;DHT22;50545;56.064;26.178;2023-11-19T00:32:45;-2.00;99.90
64226;DHT22;50545;56.064;26.178;2023-11-19T00:35:13;-2.00;99.90
64226;DHT22;50545;56.064;26.178;2023-11-19T00:37:42;-2.00;99.90
64226;DHT22;50545;56.064;26.178;2023-11-19T00:40:10;-2.00;99.90
64226;DHT22;50545;56.064;26.178;2023-11-19T00:42:38;-2.00;99.90
64226;DHT22;50545;56.064;26.178;2023-11-19T00:45:06;-2.00;99.90
64226;DHT22;50545;56.064;26.178;2023-11-19T00:47:37;-2.00;99.90
64226;DHT22;50545;56.064;26.178;2023-11-19T00:50:06;-2.00;99.90
64226;DHT22;50545;56.064;26.178;2023-11-19T00:52:37;-2.00;99.90
64226;DHT22;50545;56.064;26.178;2023-11-19T00:55:05;-2.00;99.90
64226;DHT22;50545;56.064;26.178;2023-11-19T00:57:34;-2.00;99.90
64226;DHT22;50545;56.064;26.178;2023-11-19T01:00:04;-2.00;99.90
64226;DHT22;50545;56.064;26.178;2023-11-19T01:02:40;-2.00;99.90
64226;DHT22;50545;56.064;26.178;2023-11-19T01:05:08;-2.00;99.90
64226;DHT22;50545;56.064;26.178;2023-11-19T01:07:36;-2.00;99.90
64226;DHT22;50545;56.064;26.178;2023-11-19T01:10:04;-2.00;99.90
64226;DHT22;50545;56.064;26.178;2023-11-19T01:12:32;-2.00;99.90
64226;DHT22;50545;56.064;26.178;2023-11-19T01:15:00;-2.00;99.90
64226;DHT22;50545;56.064;26.178;2023-11-19T01:17:28;-2.00;99.90
64226;DHT22;50545;56.064;26.178;2023-11-19T01:19:55;-2.00;99.90
64226;DHT22;50545;56.064;26.178;2023-11-19T01:22:23;-2.00;99.90
64226;DHT22;50545;56.064;26.178;2023-11-19T01:24:50;-2.00;99.90
64226;DHT22;50545;56.064;26.178;2023-11-19T01:27:19;-2.00;99.90
64226;DHT22;50545;56.064;26.178;2023-11-19T01:29:46;-2.00;99.90
64226;DHT22;50545;56.064;26.178;2023-11-19T01:32:14;-2.00;99.90
64226;DHT22;50545;56.064;26.178;2023-11-19T01:34:42;-2.00;99.90
64226;DHT22;50545;56.064;26.178;2023-11-19T01:37:09;-2.00;99.90
64226;DHT22;50545;56.064;26.178;2023-11-19T01:39:37;-2.00;99.90
64226;DHT22;50545;56.064;26.178;2023-11-19T01:42:06;-2.00;99.90
64226;DHT22;50545;56.064;26.178;2023-11-19T01:44:33;-2.00;99.90
64226;DHT22;50545;56.064;26.178;2023-11-19T01:47:02;-2.00;99.90
64226;DHT22;50545;56.064;26.178;2023-11-19T01:49:31;-2.00;99.90
64226;DHT22;50545;56.064;26.178;2023-11-19T01:51:59;-2.00;99.90
64226;DHT22;50545;56.064;26.178;2023-11-19T01:54:28;-2.00;99.90
64226;DHT22;50545;56.064;26.178;2023-11-19T01:56:56;-1.90;99.90
64226;DHT22;50545;56.064;26.178;2023-11-19T01:59:24;-1.90;99.90
64226;DHT22;50545;56.064;26.178;2023-11-19T02:01:55;-2.00;99.90
64226;DHT22;50545;56.064;26.178;2023-11-19T02:04:25;-2.00;99.90
64226;DHT22;50545;56.064;26.178;2023-11-19T02:06:56;-2.00;99.90
64226;DHT22;50545;56.064;26.178;2023-11-19T02:09:25;-2.00;99.90
64226;DHT22;50545;56.064;26.178;2023-11-19T02:11:55;-2.00;99.90
64226;DHT22;50545;56.064;26.178;2023-11-19T02:14:25;-2.00;99.90
64226;DHT22;50545;56.064;26.178;2023-11-19T02:16:53;-2.00;99.90
64226;DHT22;50545;56.064;26.178;2023-11-19T02:19:20;-2.00;99.90
64226;DHT22;50545;56.064;26.178;2023-11-19T02:21:48;-1.90;99.90
64226;DHT22;50545;56.064;26.178;2023-11-19T02:24:17;-1.90;99.90
64226;DHT22;50545;56.064;26.178;2023-11-19T02:29:23;-1.80;99.90
64226;DHT22;50545;56.064;26.178;2023-11-19T02:31:51;-1.80;99.90
64226;DHT22;50545;56.064;26.178;2023-11-19T02:34:18;-1.80;99.90
64226;DHT22;50545;56.064;26.178;2023-11-19T02:36:46;-1.80;99.90
64226;DHT22;50545;56.064;26.178;2023-11-19T02:39:14;-1.70;99.90
64226;DHT22;50545;56.064;26.178;2023-11-19T02:41:42;-1.70;99.90
64226;DHT22;50545;56.064;26.178;2023-11-19T02:44:09;-1.70;99.90
64226;DHT22;50545;56.064;26.178;2023-11-19T02:46:39;-1.70;99.90
64226;DHT22;50545;56.064;26.178;2023-11-19T02:49:09;-1.70;99.90
64226;DHT22;50545;56.064;26.178;2023-11-19T02:51:37;-1.70;99.90
64226;DHT22;50545;56.064;26.178;2023-11-19T02:54:04;-1.70;99.90
64226;DHT22;50545;56.064;26.178;2023-11-19T02:56:32;-1.60;99.90
64226;DHT22;50545;56.064;26.178;2023-11-19T02:59:04;-1.60;99.90
64226;DHT22;50545;56.064;26.178;2023-11-19T03:01:45;-1.60;99.90
64226;DHT22;50545;56.064;26.178;2023-11-19T03:04:17;-1.60;99.90
64226;DHT22;50545;56.064;26.178;2023-11-19T03:06:47;-1.60;99.90
64226;DHT22;50545;56.064;26.178;2023-11-19T03:09:15;-1.60;99.90
64226;DHT22;50545;56.064;26.178;2023-11-19T03:11:42;-1.60;99.90
64226;DHT22;50545;56.064;26.178;2023-11-19T03:14:10;-1.60;99.90
64226;DHT22;50545;56.064;26.178;2023-11-19T03:16:37;-1.60;99.90
64226;DHT22;50545;56.064;26.178;2023-11-19T03:19:05;-1.60;99.90
64226;DHT22;50545;56.064;26.178;2023-11-19T03:21:32;-1.60;99.90
64226;DHT22;50545;56.064;26.178;2023-11-19T03:24:00;-1.60;99.90
64226;DHT22;50545;56.064;26.178;2023-11-19T03:26:27;-1.60;99.90
64226;DHT22;50545;56.064;26.178;2023-11-19T03:28:55;-1.70;99.90
64226;DHT22;50545;56.064;26.178;2023-11-19T03:31:24;-1.70;99.90
64226;DHT22;50545;56.064;26.178;2023-11-19T03:33:52;-1.70;99.90
64226;DHT22;50545;56.064;26.178;2023-11-19T03:36:23;-1.70;99.90
64226;DHT22;50545;56.064;26.178;2023-11-19T03:38:50;-1.70;99.90
64226;DHT22;50545;56.064;26.178;2023-11-19T03:41:19;-1.80;99.90
64226;DHT22;50545;56.064;26.178;2023-11-19T03:43:48;-1.80;99.90
64226;DHT22;50545;56.064;26.178;2023-11-19T03:46:18;-1.80;99.90
64226;DHT22;50545;56.064;26.178;2023-11-19T03:48:50;-1.80;99.90
64226;DHT22;50545;56.064;26.178;2023-11-19T03:51:17;-1.80;99.90
64226;DHT22;50545;56.064;26.178;2023-11-19T03:53:45;-1.90;99.90
64226;DHT22;50545;56.064;26.178;2023-11-19T03:56:13;-1.90;99.90
64226;DHT22;50545;56.064;26.178;2023-11-19T03:58:41;-1.90;99.90
64226;DHT22;50545;56.064;26.178;2023-11-19T04:01:12;-1.90;99.90
64226;DHT22;50545;56.064;26.178;2023-11-19T04:03:41;-1.90;99.90
64226;DHT22;50545;56.064;26.178;2023-11-19T04:06:11;-1.90;99.90
64226;DHT22;50545;56.064;26.178;2023-11-19T04:08:39;-1.90;99.90
64226;DHT22;50545;56.064;26.178;2023-11-19T04:11:06;-1.90;99.90
64226;DHT22;50545;56.064;26.178;2023-11-19T04:13:35;-1.90;99.90
64226;DHT22;50545;56.064;26.178;2023-11-19T04:16:03;-1.90;99.90
64226;DHT22;50545;56.064;26.178;2023-11-19T04:18:32;-1.90;99.90
64226;DHT22;50545;56.064;26.178;2023-11-19T04:20:59;-1.90;99.90
64226;DHT22;50545;56.064;26.178;2023-11-19T04:23:27;-1.90;99.90
64226;DHT22;50545;56.064;26.178;2023-11-19T04:25:55;-1.90;99.90
64226;DHT22;50545;56.064;26.178;2023-11-19T04:28:37;-1.90;99.90
64226;DHT22;50545;56.064;26.178;2023-11-19T04:31:05;-1.90;99.90
64226;DHT22;50545;56.064;26.178;2023-11-19T04:33:33;-1.90;99.90
64226;DHT22;50545;56.064;26.178;2023-11-19T04:36:01;-1.90;99.90
64226;DHT22;50545;56.064;26.178;2023-11-19T04:38:29;-1.90;99.90
64226;DHT22;50545;56.064;26.178;2023-11-19T04:40:57;-1.90;99.90
64226;DHT22;50545;56.064;26.178;2023-11-19T04:43:25;-1.90;99.90
64226;DHT22;50545;56.064;26.178;2023-11-19T04:45:52;-2.00;99.90
64226;DHT22;50545;56.064;26.178;2023-11-19T04:48:21;-2.00;99.90
64226;DHT22;50545;56.064;26.178;2023-11-19T04:50:48;-2.00;99.90
64226;DHT22;50545;56.064;26.178;2023-11-19T04:53:16;-2.00;99.90
64226;DHT22;50545;56.064;26.178;2023-11-19T04:55:44;-2.00;99.90
64226;DHT22;50545;56.064;26.178;2023-11-19T04:58:11;-2.00;99.90
64226;DHT22;50545;56.064;26.178;2023-11-19T05:00:39;-2.00;99.90
64226;DHT22;50545;56.064;26.178;2023-11-19T05:03:07;-2.00;99.90
64226;DHT22;50545;56.064;26.178;2023-11-19T05:05:35;-2.00;99.90
64226;DHT22;50545;56.064;26.178;2023-11-19T05:08:03;-2.00;99.90
64226;DHT22;50545;56.064;26.178;2023-11-19T05:10:30;-2.00;99.90
64226;DHT22;50545;56.064;26.178;2023-11-19T05:12:58;-2.00;99.90
64226;DHT22;50545;56.064;26.178;2023-11-19T05:15:26;-2.00;99.90
64226;DHT22;50545;56.064;26.178;2023-11-19T05:17:53;-2.00;99.90
64226;DHT22;50545;56.064;26.178;2023-11-19T05:20:21;-2.00;99.90
64226;DHT22;50545;56.064;26.178;2023-11-19T05:22:49;-2.00;99.90
64226;DHT22;50545;56.064;26.178;2023-11-19T05:25:18;-2.00;99.90
64226;DHT22;50545;56.064;26.178;2023-11-19T05:27:47;-2.00;99.90
64226;DHT22;50545;56.064;26.178;2023-11-19T05:30:14;-2.00;99.90
64226;DHT22;50545;56.064;26.178;2023-11-19T05:32:42;-2.00;99.90
64226;DHT22;50545;56.064;26.178;2023-11-19T05:35:11;-2.00;99.90
64226;DHT22;50545;56.064;26.178;2023-11-19T05:37:39;-2.00;99.90
64226;DHT22;50545;56.064;26.178;2023-11-19T05:40:07;-2.00;99.90
64226;DHT22;50545;56.064;26.178;2023-11-19T05:42:42;-2.00;99.90
64226;DHT22;50545;56.064;26.178;2023-11-19T05:45:11;-2.00;99.90
64226;DHT22;50545;56.064;26.178;2023-11-19T05:47:39;-2.00;99.90
64226;DHT22;50545;56.064;26.178;2023-11-19T05:50:07;-2.00;99.90
64226;DHT22;50545;56.064;26.178;2023-11-19T05:52:35;-2.00;99.90
64226;DHT22;50545;56.064;26.178;2023-11-19T05:55:03;-2.00;99.90
64226;DHT22;50545;56.064;26.178;2023-11-19T05:57:37;-2.00;99.90
64226;DHT22;50545;56.064;26.178;2023-11-19T06:00:08;-2.00;99.90
64226;DHT22;50545;56.064;26.178;2023-11-19T06:02:37;-2.00;99.90
64226;DHT22;50545;56.064;26.178;2023-11-19T06:05:06;-2.00;99.90
64226;DHT22;50545;56.064;26.178;2023-11-19T06:07:33;-2.00;99.90
64226;DHT22;50545;56.064;26.178;2023-11-19T06:10:03;-2.00;99.90
64226;DHT22;50545;56.064;26.178;2023-11-19T06:12:33;-2.00;99.90
64226;DHT22;50545;56.064;26.178;2023-11-19T06:15:05;-2.00;99.90
64226;DHT22;50545;56.064;26.178;2023-11-19T06:17:33;-2.00;99.90
64226;DHT22;50545;56.064;26.178;2023-11-19T06:20:01;-2.00;99.90
64226;DHT22;50545;56.064;26.178;2023-11-19T06:22:31;-1.90;99.90
64226;DHT22;50545;56.064;26.178;2023-11-19T06:24:59;-1.90;99.90
64226;DHT22;50545;56.064;26.178;2023-11-19T06:27:27;-1.90;99.90
64226;DHT22;50545;56.064;26.178;2023-11-19T06:29:55;-1.90;99.90
64226;DHT22;50545;56.064;26.178;2023-11-19T06:32:22;-1.90;99.90
64226;DHT22;50545;56.064;26.178;2023-11-19T06:34:49;-1.90;99.90
64226;DHT22;50545;56.064;26.178;2023-11-19T06:37:17;-1.90;99.90
64226;DHT22;50545;56.064;26.178;2023-11-19T06:39:44;-1.90;99.90
64226;DHT22;50545;56.064;26.178;2023-11-19T06:42:12;-1.80;99.90
64226;DHT22;50545;56.064;26.178;2023-11-19T06:44:39;-1.80;99.90
64226;DHT22;50545;56.064;26.178;2023-11-19T06:47:07;-1.80;99.90
64226;DHT22;50545;56.064;26.178;2023-11-19T06:49:35;-1.80;99.90
64226;DHT22;50545;56.064;26.178;2023-11-19T06:52:03;-1.80;99.90
64226;DHT22;50545;56.064;26.178;2023-11-19T06:54:31;-1.80;99.90
64226;DHT22;50545;56.064;26.178;2023-11-19T06:56:59;-1.80;99.90
64226;DHT22;50545;56.064;26.178;2023-11-19T06:59:26;-1.70;99.90
64226;DHT22;50545;56.064;26.178;2023-11-19T07:01:53;-1.70;99.90
64226;DHT22;50545;56.064;26.178;2023-11-19T07:04:22;-1.70;99.90
64226;DHT22;50545;56.064;26.178;2023-11-19T07:06:49;-1.70;99.90
64226;DHT22;50545;56.064;26.178;2023-11-19T07:09:16;-1.60;99.90
64226;DHT22;50545;56.064;26.178;2023-11-19T07:11:45;-1.60;99.90
64226;DHT22;50545;56.064;26.178;2023-11-19T07:14:13;-1.60;99.90
64226;DHT22;50545;56.064;26.178;2023-11-19T07:16:40;-1.60;99.90
64226;DHT22;50545;56.064;26.178;2023-11-19T07:19:08;-1.60;99.90
64226;DHT22;50545;56.064;26.178;2023-11-19T07:21:36;-1.50;99.90
64226;DHT22;50545;56.064;26.178;2023-11-19T07:24:06;-1.50;99.90
64226;DHT22;50545;56.064;26.178;2023-11-19T07:26:34;-1.50;99.90
64226;DHT22;50545;56.064;26.178;2023-11-19T07:29:01;-1.50;99.90
64226;DHT22;50545;56.064;26.178;2023-11-19T07:31:29;-1.50;99.90
64226;DHT22;50545;56.064;26.178;2023-11-19T07:33:56;-1.40;99.90
64226;DHT22;50545;56.064;26.178;2023-11-19T07:36:24;-1.40;99.90
64226;DHT22;50545;56.064;26.178;2023-11-19T07:38:51;-1.40;99.90
64226;DHT22;50545;56.064;26.178;2023-11-19T07:41:18;-1.40;99.90
64226;DHT22;50545;56.064;26.178;2023-11-19T07:43:47;-1.30;99.90
64226;DHT22;50545;56.064;26.178;2023-11-19T07:46:14;-1.30;99.90
64226;DHT22;50545;56.064;26.178;2023-11-19T07:48:42;-1.30;99.90
64226;DHT22;50545;56.064;26.178;2023-11-19T07:51:11;-1.20;99.90
64226;DHT22;50545;56.064;26.178;2023-11-19T07:53:40;-1.20;99.90
64226;DHT22;50545;56.064;26.178;2023-11-19T07:56:08;-1.10;99.90
64226;DHT22;50545;56.064;26.178;2023-11-19T07:58:36;-1.10;99.90
64226;DHT22;50545;56.064;26.178;2023-11-19T08:01:05;-1.10;99.90
64226;DHT22;50545;56.064;26.178;2023-11-19T08:03:33;-1.10;99.90
64226;DHT22;50545;56.064;26.178;2023-11-19T08:06:03;-1.00;99.90
64226;DHT22;50545;56.064;26.178;2023-11-19T08:08:31;-1.00;99.90
64226;DHT22;50545;56.064;26.178;2023-11-19T08:11:01;-1.00;99.90
64226;DHT22;50545;56.064;26.178;2023-11-19T08:13:28;-0.90;99.90
64226;DHT22;50545;56.064;26.178;2023-11-19T08:15:56;-0.90;99.90
64226;DHT22;50545;56.064;26.178;2023-11-19T08:18:25;-0.80;99.90
64226;DHT22;50545;56.064;26.178;2023-11-19T08:20:52;-0.80;99.90
64226;DHT22;50545;56.064;26.178;2023-11-19T08:23:20;-0.70;99.90
64226;DHT22;50545;56.064;26.178;2023-11-19T08:25:48;-0.70;99.90
64226;DHT22;50545;56.064;26.178;2023-11-19T08:28:15;-0.60;99.90
64226;DHT22;50545;56.064;26.178;2023-11-19T08:30:43;-0.60;99.90
64226;DHT22;50545;56.064;26.178;2023-11-19T08:33:11;-0.60;99.90
64226;DHT22;50545;56.064;26.178;2023-11-19T08:35:38;-0.50;99.90
64226;DHT22;50545;56.064;26.178;2023-11-19T08:38:06;-0.50;99.90
64226;DHT22;50545;56.064;26.178;2023-11-19T08:40:34;-0.50;99.90
64226;DHT22;50545;56.064;26.178;2023-11-19T08:43:01;-0.40;99.90
64226;DHT22;50545;56.064;26.178;2023-11-19T08:45:29;-0.30;99.90
64226;DHT22;50545;56.064;26.178;2023-11-19T08:47:57;-0.30;99.90
64226;DHT22;50545;56.064;26.178;2023-11-19T08:50:25;-0.20;99.90
64226;DHT22;50545;56.064;26.178;2023-11-19T08:52:52;-0.20;99.90
64226;DHT22;50545;56.064;26.178;2023-11-19T08:55:20;-0.10;99.90
64226;DHT22;50545;56.064;26.178;2023-11-19T08:57:47;-0.10;99.90
64226;DHT22;50545;56.064;26.178;2023-11-19T09:00:15;-0.10;99.90
64226;DHT22;50545;56.064;26.178;2023-11-19T09:02:42;0.00;99.90
64226;DHT22;50545;56.064;26.178;2023-11-19T09:05:10;0.10;99.90
64226;DHT22;50545;56.064;26.178;2023-11-19T09:07:38;0.10;99.90
64226;DHT22;50545;56.064;26.178;2023-11-19T09:10:06;0.20;99.90
64226;DHT22;50545;56.064;26.178;2023-11-19T09:12:35;0.20;99.90
64226;DHT22;50545;56.064;26.178;2023-11-19T09:15:03;0.20;99.90
64226;DHT22;50545;56.064;26.178;2023-11-19T09:17:31;0.30;99.90
64226;DHT22;50545;56.064;26.178;2023-11-19T09:19:58;0.30;99.90
64226;DHT22;50545;56.064;26.178;2023-11-19T09:22:25;0.40;99.90
64226;DHT22;50545;56.064;26.178;2023-11-19T09:24:53;0.40;99.90
64226;DHT22;50545;56.064;26.178;2023-11-19T09:27:21;0.50;99.90
64226;DHT22;50545;56.064;26.178;2023-11-19T09:29:48;0.50;99.90
64226;DHT22;50545;56.064;26.178;2023-11-19T09:32:17;0.60;99.90
64226;DHT22;50545;56.064;26.178;2023-11-19T09:34:45;0.60;99.90
64226;DHT22;50545;56.064;26.178;2023-11-19T09:37:13;0.60;99.90
64226;DHT22;50545;56.064;26.178;2023-11-19T09:39:44;0.70;99.90
64226;DHT22;50545;56.064;26.178;2023-11-19T09:42:12;0.70;99.90
64226;DHT22;50545;56.064;26.178;2023-11-19T09:44:41;0.70;99.90
64226;DHT22;50545;56.064;26.178;2023-11-19T09:47:11;0.70;99.90
64226;DHT22;50545;56.064;26.178;2023-11-19T09:49:40;0.70;99.90
64226;DHT22;50545;56.064;26.178;2023-11-19T09:52:07;0.70;99.90
64226;DHT22;50545;56.064;26.178;2023-11-19T09:54:35;0.60;99.90
64226;DHT22;50545;56.064;26.178;2023-11-19T09:57:04;0.60;99.90
64226;DHT22;50545;56.064;26.178;2023-11-19T09:59:33;0.60;99.90
64226;DHT22;50545;56.064;26.178;2023-11-19T10:02:02;0.50;99.90
64226;DHT22;50545;56.064;26.178;2023-11-19T10:04:30;0.40;99.90
64226;DHT22;50545;56.064;26.178;2023-11-19T10:07:00;0.40;99.90
64226;DHT22;50545;56.064;26.178;2023-11-19T10:09:27;0.30;99.90
64226;DHT22;50545;56.064;26.178;2023-11-19T10:11:55;0.20;99.90
64226;DHT22;50545;56.064;26.178;2023-11-19T10:14:23;0.20;99.90
64226;DHT22;50545;56.064;26.178;2023-11-19T10:16:51;0.10;99.90
64226;DHT22;50545;56.064;26.178;2023-11-19T10:19:21;0.10;99.90
64226;DHT22;50545;56.064;26.178;2023-11-19T10:21:49;0.00;99.90
64226;DHT22;50545;56.064;26.178;2023-11-19T10:24:17;0.00;99.90
64226;DHT22;50545;56.064;26.178;2023-11-19T10:26:58;0.00;99.90
64226;DHT22;50545;56.064;26.178;2023-11-19T10:29:26;-0.10;99.90
64226;DHT22;50545;56.064;26.178;2023-11-19T10:31:57;-0.10;99.90
64226;DHT22;50545;56.064;26.178;2023-11-19T10:34:45;-0.20;99.90
64226;DHT22;50545;56.064;26.178;2023-11-19T10:37:28;-0.20;99.90
64226;DHT22;50545;56.064;26.178;2023-11-19T10:40:00;-0.30;99.90
64226;DHT22;50545;56.064;26.178;2023-11-19T10:42:27;-0.30;99.90
64226;DHT22;50545;56.064;26.178;2023-11-19T10:44:55;-0.30;99.90
64226;DHT22;50545;56.064;26.178;2023-11-19T10:47:23;-0.30;99.90
64226;DHT22;50545;56.064;26.178;2023-11-19T10:49:53;-0.30;99.90
64226;DHT22;50545;56.064;26.178;2023-11-19T10:52:21;-0.30;99.90
64226;DHT22;50545;56.064;26.178;2023-11-19T10:54:50;-0.30;99.90
64226;DHT22;50545;56.064;26.178;2023-11-19T10:57:21;-0.30;99.90
64226;DHT22;50545;56.064;26.178;2023-11-19T10:59:52;-0.30;99.90
64226;DHT22;50545;56.064;26.178;2023-11-19T11:02:24;-0.30;99.90
64226;DHT22;50545;56.064;26.178;2023-11-19T11:04:54;-0.20;99.90
64226;DHT22;50545;56.064;26.178;2023-11-19T11:07:22;-0.20;99.90
64226;DHT22;50545;56.064;26.178;2023-11-19T11:10:06;-0.20;99.90
64226;DHT22;50545;56.064;26.178;2023-11-19T11:12:37;-0.20;99.90
64226;DHT22;50545;56.064;26.178;2023-11-19T11:15:06;-0.20;99.90
64226;DHT22;50545;56.064;26.178;2023-11-19T11:17:34;-0.20;99.90
64226;DHT22;50545;56.064;26.178;2023-11-19T11:20:04;-0.20;99.90
64226;DHT22;50545;56.064;26.178;2023-11-19T11:28:51;-0.20;99.90
64226;DHT22;50545;56.064;26.178;2023-11-19T11:31:30;-0.20;99.90
64226;DHT22;50545;56.064;26.178;2023-11-19T11:39:24;-0.20;99.90
64226;DHT22;50545;56.064;26.178;2023-11-19T11:45:03;-0.30;99.90
64226;DHT22;50545;56.064;26.178;2023-11-19T11:50:17;-0.30;99.90
64226;DHT22;50545;56.064;26.178;2023-11-19T11:57:56;-0.20;99.90
64226;DHT22;50545;56.064;26.178;2023-11-19T12:00:29;-0.20;99.90
64226;DHT22;50545;56.064;26.178;2023-11-19T12:03:00;-0.20;99.90
64226;DHT22;50545;56.064;26.178;2023-11-19T12:05:28;-0.20;99.90
64226;DHT22;50545;56.064;26.178;2023-11-19T12:07:56;-0.20;99.90
64226;DHT22;50545;56.064;26.178;2023-11-19T12:10:25;-0.20;99.90
64226;DHT22;50545;56.064;26.178;2023-11-19T12:12:59;-0.20;99.90
64226;DHT22;50545;56.064;26.178;2023-11-19T12:15:27;-0.20;99.90
64226;DHT22;50545;56.064;26.178;2023-11-19T12:17:55;-0.20;99.90
64226;DHT22;50545;56.064;26.178;2023-11-19T12:20:24;-0.20;99.90
64226;DHT22;50545;56.064;26.178;2023-11-19T12:22:55;-0.20;99.90
64226;DHT22;50545;56.064;26.178;2023-11-19T12:25:22;-0.20;99.90
64226;DHT22;50545;56.064;26.178;2023-11-19T12:27:51;-0.20;99.90
64226;DHT22;50545;56.064;26.178;2023-11-19T12:30:24;-0.20;99.90
64226;DHT22;50545;56.064;26.178;2023-11-19T12:32:53;-0.20;99.90
64226;DHT22;50545;56.064;26.178;2023-11-19T12:35:22;-0.20;99.90
64226;DHT22;50545;56.064;26.178;2023-11-19T12:37:51;-0.20;99.90
64226;DHT22;50545;56.064;26.178;2023-11-19T12:40:24;-0.20;99.90
64226;DHT22;50545;56.064;26.178;2023-11-19T12:42:53;-0.20;99.90
64226;DHT22;50545;56.064;26.178;2023-11-19T12:45:22;-0.30;99.90
64226;DHT22;50545;56.064;26.178;2023-11-19T12:48:04;-0.30;99.90
64226;DHT22;50545;56.064;26.178;2023-11-19T12:50:50;-0.30;99.90
64226;DHT22;50545;56.064;26.178;2023-11-19T12:53:19;-0.30;99.90
64226;DHT22;50545;56.064;26.178;2023-11-19T12:55:47;-0.30;99.90
64226;DHT22;50545;56.064;26.178;2023-11-19T12:58:34;-0.30;99.90
64226;DHT22;50545;56.064;26.178;2023-11-19T13:01:06;-0.30;99.90
64226;DHT22;50545;56.064;26.178;2023-11-19T13:03:36;-0.40;99.90
64226;DHT22;50545;56.064;26.178;2023-11-19T13:06:11;-0.40;99.90
64226;DHT22;50545;56.064;26.178;2023-11-19T13:08:43;-0.40;99.90
64226;DHT22;50545;56.064;26.178;2023-11-19T13:11:12;-0.40;99.90
64226;DHT22;50545;56.064;26.178;2023-11-19T13:13:57;-0.40;99.90
64226;DHT22;50545;56.064;26.178;2023-11-19T13:16:26;-0.40;99.90
64226;DHT22;50545;56.064;26.178;2023-11-19T13:18:54;-0.40;99.90
64226;DHT22;50545;56.064;26.178;2023-11-19T13:21:22;-0.40;99.90
64226;DHT22;50545;56.064;26.178;2023-11-19T13:23:49;-0.40;99.90
64226;DHT22;50545;56.064;26.178;2023-11-19T13:26:17;-0.40;99.90
64226;DHT22;50545;56.064;26.178;2023-11-19T13:28:45;-0.40;99.90
64226;DHT22;50545;56.064;26.178;2023-11-19T13:31:13;-0.50;99.90
64226;DHT22;50545;56.064;26.178;2023-11-19T13:33:41;-0.50;99.90
64226;DHT22;50545;56.064;26.178;2023-11-19T13:36:09;-0.50;99.90
64226;DHT22;50545;56.064;26.178;2023-11-19T13:38:42;-0.50;99.90
64226;DHT22;50545;56.064;26.178;2023-11-19T13:41:12;-0.50;99.90
64226;DHT22;50545;56.064;26.178;2023-11-19T13:43:40;-0.50;99.90
64226;DHT22;50545;56.064;26.178;2023-11-19T13:46:07;-0.50;99.90
64226;DHT22;50545;56.064;26.178;2023-11-19T13:48:38;-0.60;99.90
64226;DHT22;50545;56.064;26.178;2023-11-19T13:51:06;-0.60;99.90
64226;DHT22;50545;56.064;26.178;2023-11-19T13:53:33;-0.60;99.90
64226;DHT22;50545;56.064;26.178;2023-11-19T13:56:03;-0.60;99.90
64226;DHT22;50545;56.064;26.178;2023-11-19T13:58:31;-0.60;99.90
64226;DHT22;50545;56.064;26.178;2023-11-19T14:00:58;-0.60;99.90
64226;DHT22;50545;56.064;26.178;2023-11-19T14:03:26;-0.60;99.90
64226;DHT22;50545;56.064;26.178;2023-11-19T14:05:54;-0.60;99.90
64226;DHT22;50545;56.064;26.178;2023-11-19T14:08:22;-0.60;99.90
64226;DHT22;50545;56.064;26.178;2023-11-19T14:10:52;-0.70;99.90
64226;DHT22;50545;56.064;26.178;2023-11-19T14:13:23;-0.70;99.90
64226;DHT22;50545;56.064;26.178;2023-11-19T14:15:50;-0.70;99.90
64226;DHT22;50545;56.064;26.178;2023-11-19T14:18:18;-0.70;99.90
64226;DHT22;50545;56.064;26.178;2023-11-19T14:20:46;-0.70;99.90
64226;DHT22;50545;56.064;26.178;2023-11-19T14:23:13;-0.70;99.90
64226;DHT22;50545;56.064;26.178;2023-11-19T14:25:41;-0.70;99.90
64226;DHT22;50545;56.064;26.178;2023-11-19T14:28:08;-0.70;99.90
64226;DHT22;50545;56.064;26.178;2023-11-19T14:30:36;-0.70;99.90
64226;DHT22;50545;56.064;26.178;2023-11-19T14:33:04;-0.70;99.90
64226;DHT22;50545;56.064;26.178;2023-11-19T14:35:32;-0.80;99.90
64226;DHT22;50545;56.064;26.178;2023-11-19T14:38:01;-0.80;99.90
64226;DHT22;50545;56.064;26.178;2023-11-19T14:40:32;-0.80;99.90
64226;DHT22;50545;56.064;26.178;2023-11-19T14:43:02;-0.80;99.90
64226;DHT22;50545;56.064;26.178;2023-11-19T14:45:29;-0.80;99.90
64226;DHT22;50545;56.064;26.178;2023-11-19T14:48:07;-0.80;99.90
64226;DHT22;50545;56.064;26.178;2023-11-19T14:50:35;-0.80;99.90
64226;DHT22;50545;56.064;26.178;2023-11-19T14:53:02;-0.80;99.90
64226;DHT22;50545;56.064;26.178;2023-11-19T14:55:30;-0.80;99.90
64226;DHT22;50545;56.064;26.178;2023-11-19T14:57:58;-0.80;99.90
64226;DHT22;50545;56.064;26.178;2023-11-19T15:00:35;-0.80;99.90
64226;DHT22;50545;56.064;26.178;2023-11-19T15:03:03;-0.90;99.90
64226;DHT22;50545;56.064;26.178;2023-11-19T15:05:31;-0.80;99.90
64226;DHT22;50545;56.064;26.178;2023-11-19T15:07:58;-0.90;99.90
64226;DHT22;50545;56.064;26.178;2023-11-19T15:10:26;-0.90;99.90
64226;DHT22;50545;56.064;26.178;2023-11-19T15:12:53;-0.90;99.90
64226;DHT22;50545;56.064;26.178;2023-11-19T15:15:21;-0.90;99.90
64226;DHT22;50545;56.064;26.178;2023-11-19T15:17:52;-0.90;99.90
64226;DHT22;50545;56.064;26.178;2023-11-19T15:20:19;-0.90;99.90
64226;DHT22;50545;56.064;26.178;2023-11-19T15:22:48;-0.90;99.90
64226;DHT22;50545;56.064;26.178;2023-11-19T15:25:15;-0.90;99.90
64226;DHT22;50545;56.064;26.178;2023-11-19T15:27:42;-0.90;99.90
64226;DHT22;50545;56.064;26.178;2023-11-19T15:30:10;-0.90;99.90
64226;DHT22;50545;56.064;26.178;2023-11-19T15:32:38;-0.90;99.90
64226;DHT22;50545;56.064;26.178;2023-11-19T15:35:07;-0.90;99.90
64226;DHT22;50545;56.064;26.178;2023-11-19T15:37:37;-1.00;99.90
64226;DHT22;50545;56.064;26.178;2023-11-19T15:40:07;-1.00;99.90
64226;DHT22;50545;56.064;26.178;2023-11-19T15:42:36;-1.00;99.90
64226;DHT22;50545;56.064;26.178;2023-11-19T15:45:04;-0.90;99.90
64226;DHT22;50545;56.064;26.178;2023-11-19T15:47:35;-1.00;99.90
64226;DHT22;50545;56.064;26.178;2023-11-19T15:50:03;-1.00;99.90
64226;DHT22;50545;56.064;26.178;2023-11-19T15:52:31;-1.00;99.90